sensor_id;sensor_type;location;lat;lon;timestamp;P1;durP1;ratioP1;P2;durP2;ratioP2
37907;SDS011;23740;51.550;6.846;2023-07-08T00:02:15;2.13;;;1.88;;
37907;SDS011;23740;51.550;6.846;2023-07-08T00:04:43;2.67;;;2.03;;
37907;SDS011;23740;51.550;6.846;2023-07-08T00:07:12;2.17;;;1.98;;
37907;SDS011;23740;51.550;6.846;2023-07-08T00:09:41;3.70;;;2.13;;
37907;SDS011;23740;51.550;6.846;2023-07-08T00:12:10;2.00;;;1.65;;
37907;SDS011;23740;51.550;6.846;2023-07-08T00:14:39;2.35;;;1.63;;
37907;SDS011;23740;51.550;6.846;2023-07-08T00:17:09;2.80;;;1.95;;
37907;SDS011;23740;51.550;6.846;2023-07-08T00:19:38;2.05;;;1.80;;
37907;SDS011;23740;51.550;6.846;2023-07-08T00:22:11;3.17;;;2.05;;
37907;SDS011;23740;51.550;6.846;2023-07-08T00:24:41;2.42;;;1.50;;
37907;SDS011;23740;51.550;6.846;2023-07-08T00:27:10;2.22;;;1.95;;
37907;SDS011;23740;51.550;6.846;2023-07-08T00:29:40;2.72;;;2.22;;
37907;SDS011;23740;51.550;6.846;2023-07-08T00:32:12;2.40;;;1.73;;
37907;SDS011;23740;51.550;6.846;2023-07-08T00:34:42;3.28;;;1.67;;
37907;SDS011;23740;51.550;6.846;2023-07-08T00:37:10;3.20;;;1.98;;
37907;SDS011;23740;51.550;6.846;2023-07-08T00:39:39;3.00;;;2.33;;
37907;SDS011;23740;51.550;6.846;2023-07-08T00:42:10;2.20;;;2.00;;
37907;SDS011;23740;51.550;6.846;2023-07-08T00:44:44;2.78;;;1.98;;
37907;SDS011;23740;51.550;6.846;2023-07-08T00:47:13;2.30;;;2.10;;
37907;SDS011;23740;51.550;6.846;2023-07-08T00:49:43;2.42;;;2.22;;
37907;SDS011;23740;51.550;6.846;2023-07-08T00:52:20;2.08;;;1.83;;
37907;SDS011;23740;51.550;6.846;2023-07-08T00:54:50;2.00;;;1.80;;
37907;SDS011;23740;51.550;6.846;2023-07-08T00:57:19;3.38;;;2.10;;
37907;SDS011;23740;51.550;6.846;2023-07-08T00:59:52;3.05;;;2.30;;
37907;SDS011;23740;51.550;6.846;2023-07-08T01:02:22;3.10;;;2.80;;
37907;SDS011;23740;51.550;6.846;2023-07-08T01:04:52;2.50;;;2.15;;
37907;SDS011;23740;51.550;6.846;2023-07-08T01:07:23;2.38;;;2.17;;
37907;SDS011;23740;51.550;6.846;2023-07-08T01:09:54;2.50;;;2.30;;
37907;SDS011;23740;51.550;6.846;2023-07-08T01:12:26;2.13;;;1.92;;
37907;SDS011;23740;51.550;6.846;2023-07-08T01:14:56;2.80;;;1.95;;
37907;SDS011;23740;51.550;6.846;2023-07-08T01:17:25;2.08;;;1.77;;
37907;SDS011;23740;51.550;6.846;2023-07-08T01:19:59;2.08;;;1.88;;
37907;SDS011;23740;51.550;6.846;2023-07-08T01:22:32;2.33;;;1.88;;
37907;SDS011;23740;51.550;6.846;2023-07-08T01:25:02;2.85;;;2.13;;
37907;SDS011;23740;51.550;6.846;2023-07-08T01:27:31;3.03;;;2.53;;
37907;SDS011;23740;51.550;6.846;2023-07-08T01:30:01;3.03;;;1.95;;
37907;SDS011;23740;51.550;6.846;2023-07-08T01:32:29;3.35;;;1.98;;
37907;SDS011;23740;51.550;6.846;2023-07-08T01:34:58;2.20;;;1.92;;
37907;SDS011;23740;51.550;6.846;2023-07-08T01:37:33;2.42;;;2.03;;
37907;SDS011;23740;51.550;6.846;2023-07-08T01:40:15;3.03;;;1.67;;
37907;SDS011;23740;51.550;6.846;2023-07-08T01:42:44;2.45;;;1.73;;
37907;SDS011;23740;51.550;6.846;2023-07-08T01:45:13;2.78;;;2.42;;
37907;SDS011;23740;51.550;6.846;2023-07-08T01:47:42;2.30;;;1.83;;
37907;SDS011;23740;51.550;6.846;2023-07-08T01:50:13;2.30;;;1.80;;
37907;SDS011;23740;51.550;6.846;2023-07-08T01:52:42;2.30;;;1.80;;
37907;SDS011;23740;51.550;6.846;2023-07-08T01:55:10;2.33;;;2.03;;
37907;SDS011;23740;51.550;6.846;2023-07-08T01:57:38;2.70;;;2.38;;
37907;SDS011;23740;51.550;6.846;2023-07-08T02:00:06;2.90;;;2.33;;
37907;SDS011;23740;51.550;6.846;2023-07-08T02:02:35;2.40;;;1.98;;
37907;SDS011;23740;51.550;6.846;2023-07-08T02:05:03;2.85;;;2.45;;
37907;SDS011;23740;51.550;6.846;2023-07-08T02:07:31;3.05;;;2.10;;
37907;SDS011;23740;51.550;6.846;2023-07-08T02:10:00;2.50;;;2.30;;
37907;SDS011;23740;51.550;6.846;2023-07-08T02:12:28;2.38;;;2.03;;
37907;SDS011;23740;51.550;6.846;2023-07-08T02:14:56;2.97;;;2.08;;
37907;SDS011;23740;51.550;6.846;2023-07-08T02:17:25;2.60;;;2.10;;
37907;SDS011;23740;51.550;6.846;2023-07-08T02:19:55;2.15;;;1.88;;
37907;SDS011;23740;51.550;6.846;2023-07-08T02:22:23;1.77;;;1.67;;
37907;SDS011;23740;51.550;6.846;2023-07-08T02:24:51;2.17;;;1.95;;
37907;SDS011;23740;51.550;6.846;2023-07-08T02:27:20;2.15;;;1.90;;
37907;SDS011;23740;51.550;6.846;2023-07-08T02:29:48;2.42;;;2.10;;
37907;SDS011;23740;51.550;6.846;2023-07-08T02:32:16;3.05;;;2.15;;
37907;SDS011;23740;51.550;6.846;2023-07-08T02:34:44;2.90;;;2.10;;
37907;SDS011;23740;51.550;6.846;2023-07-08T02:37:12;2.67;;;1.95;;
37907;SDS011;23740;51.550;6.846;2023-07-08T02:39:40;2.72;;;2.53;;
37907;SDS011;23740;51.550;6.846;2023-07-08T02:42:08;2.97;;;2.63;;
37907;SDS011;23740;51.550;6.846;2023-07-08T02:44:37;2.13;;;2.03;;
37907;SDS011;23740;51.550;6.846;2023-07-08T02:47:05;2.17;;;2.08;;
37907;SDS011;23740;51.550;6.846;2023-07-08T02:49:33;3.10;;;2.00;;
37907;SDS011;23740;51.550;6.846;2023-07-08T02:52:03;2.67;;;2.03;;
37907;SDS011;23740;51.550;6.846;2023-07-08T02:54:31;2.85;;;2.45;;
37907;SDS011;23740;51.550;6.846;2023-07-08T02:56:59;2.60;;;2.40;;
37907;SDS011;23740;51.550;6.846;2023-07-08T02:59:27;3.63;;;2.38;;
37907;SDS011;23740;51.550;6.846;2023-07-08T03:01:56;2.65;;;2.30;;
37907;SDS011;23740;51.550;6.846;2023-07-08T03:04:24;2.65;;;1.90;;
37907;SDS011;23740;51.550;6.846;2023-07-08T03:06:52;2.72;;;2.22;;
37907;SDS011;23740;51.550;6.846;2023-07-08T03:09:20;2.42;;;2.20;;
37907;SDS011;23740;51.550;6.846;2023-07-08T03:11:48;3.65;;;2.47;;
37907;SDS011;23740;51.550;6.846;2023-07-08T03:14:16;2.67;;;2.47;;
37907;SDS011;23740;51.550;6.846;2023-07-08T03:16:44;2.95;;;2.15;;
37907;SDS011;23740;51.550;6.846;2023-07-08T03:19:13;2.20;;;2.00;;
37907;SDS011;23740;51.550;6.846;2023-07-08T03:21:41;2.13;;;1.92;;
37907;SDS011;23740;51.550;6.846;2023-07-08T03:24:09;2.72;;;2.15;;
37907;SDS011;23740;51.550;6.846;2023-07-08T03:26:38;2.72;;;2.30;;
37907;SDS011;23740;51.550;6.846;2023-07-08T03:29:07;4.05;;;2.40;;
37907;SDS011;23740;51.550;6.846;2023-07-08T03:31:36;2.35;;;1.92;;
37907;SDS011;23740;51.550;6.846;2023-07-08T03:34:04;2.45;;;1.88;;
37907;SDS011;23740;51.550;6.846;2023-07-08T03:36:42;4.85;;;2.17;;
37907;SDS011;23740;51.550;6.846;2023-07-08T03:39:15;3.63;;;2.22;;
37907;SDS011;23740;51.550;6.846;2023-07-08T03:41:43;3.03;;;2.67;;
37907;SDS011;23740;51.550;6.846;2023-07-08T03:44:11;2.17;;;1.92;;
37907;SDS011;23740;51.550;6.846;2023-07-08T03:46:42;3.15;;;2.50;;
37907;SDS011;23740;51.550;6.846;2023-07-08T03:49:11;4.07;;;2.40;;
37907;SDS011;23740;51.550;6.846;2023-07-08T03:51:40;2.25;;;2.05;;
37907;SDS011;23740;51.550;6.846;2023-07-08T03:54:10;3.20;;;2.35;;
37907;SDS011;23740;51.550;6.846;2023-07-08T03:56:39;3.05;;;2.40;;
37907;SDS011;23740;51.550;6.846;2023-07-08T03:59:07;3.10;;;2.13;;
37907;SDS011;23740;51.550;6.846;2023-07-08T04:01:35;2.28;;;2.08;;
37907;SDS011;23740;51.550;6.846;2023-07-08T04:04:08;2.20;;;1.98;;
37907;SDS011;23740;51.550;6.846;2023-07-08T04:06:37;2.30;;;1.98;;
37907;SDS011;23740;51.550;6.846;2023-07-08T04:09:07;2.85;;;2.60;;
37907;SDS011;23740;51.550;6.846;2023-07-08T04:11:35;3.15;;;2.25;;
37907;SDS011;23740;51.550;6.846;2023-07-08T04:14:03;4.72;;;2.25;;
37907;SDS011;23740;51.550;6.846;2023-07-08T04:16:35;2.58;;;2.38;;
37907;SDS011;23740;51.550;6.846;2023-07-08T04:19:12;3.00;;;2.33;;
37907;SDS011;23740;51.550;6.846;2023-07-08T04:21:42;2.97;;;2.25;;
37907;SDS011;23740;51.550;6.846;2023-07-08T04:24:13;4.25;;;2.55;;
37907;SDS011;23740;51.550;6.846;2023-07-08T04:26:42;2.58;;;2.10;;
37907;SDS011;23740;51.550;6.846;2023-07-08T04:29:13;2.70;;;2.22;;
37907;SDS011;23740;51.550;6.846;2023-07-08T04:31:43;2.40;;;2.17;;
37907;SDS011;23740;51.550;6.846;2023-07-08T04:34:11;5.07;;;2.78;;
37907;SDS011;23740;51.550;6.846;2023-07-08T04:36:39;3.60;;;2.42;;
37907;SDS011;23740;51.550;6.846;2023-07-08T04:39:07;2.47;;;1.92;;
37907;SDS011;23740;51.550;6.846;2023-07-08T04:41:37;3.05;;;2.17;;
37907;SDS011;23740;51.550;6.846;2023-07-08T04:44:07;2.70;;;2.40;;
37907;SDS011;23740;51.550;6.846;2023-07-08T04:46:37;2.92;;;2.60;;
37907;SDS011;23740;51.550;6.846;2023-07-08T04:49:07;3.40;;;2.17;;
37907;SDS011;23740;51.550;6.846;2023-07-08T04:51:36;3.03;;;2.72;;
37907;SDS011;23740;51.550;6.846;2023-07-08T04:54:04;3.67;;;3.38;;
37907;SDS011;23740;51.550;6.846;2023-07-08T04:56:36;4.20;;;2.40;;
37907;SDS011;23740;51.550;6.846;2023-07-08T04:59:07;3.17;;;2.75;;
37907;SDS011;23740;51.550;6.846;2023-07-08T05:01:36;3.60;;;2.72;;
37907;SDS011;23740;51.550;6.846;2023-07-08T05:04:04;2.80;;;2.60;;
37907;SDS011;23740;51.550;6.846;2023-07-08T05:06:33;3.42;;;3.00;;
37907;SDS011;23740;51.550;6.846;2023-07-08T05:09:02;3.63;;;2.63;;
37907;SDS011;23740;51.550;6.846;2023-07-08T05:11:30;3.30;;;2.28;;
37907;SDS011;23740;51.550;6.846;2023-07-08T05:14:00;3.08;;;2.45;;
37907;SDS011;23740;51.550;6.846;2023-07-08T05:16:29;3.58;;;2.75;;
37907;SDS011;23740;51.550;6.846;2023-07-08T05:18:57;3.58;;;2.53;;
37907;SDS011;23740;51.550;6.846;2023-07-08T05:21:25;2.70;;;2.50;;
37907;SDS011;23740;51.550;6.846;2023-07-08T05:23:54;3.78;;;2.42;;
37907;SDS011;23740;51.550;6.846;2023-07-08T05:26:24;4.13;;;2.95;;
37907;SDS011;23740;51.550;6.846;2023-07-08T05:28:52;2.75;;;2.03;;
37907;SDS011;23740;51.550;6.846;2023-07-08T05:31:24;2.83;;;2.22;;
37907;SDS011;23740;51.550;6.846;2023-07-08T05:34:07;2.72;;;2.30;;
37907;SDS011;23740;51.550;6.846;2023-07-08T05:36:35;2.63;;;2.38;;
37907;SDS011;23740;51.550;6.846;2023-07-08T05:39:03;3.85;;;2.55;;
37907;SDS011;23740;51.550;6.846;2023-07-08T05:41:31;2.60;;;2.35;;
37907;SDS011;23740;51.550;6.846;2023-07-08T05:43:58;6.55;;;2.50;;
37907;SDS011;23740;51.550;6.846;2023-07-08T05:46:28;3.30;;;2.60;;
37907;SDS011;23740;51.550;6.846;2023-07-08T05:48:56;3.15;;;2.38;;
37907;SDS011;23740;51.550;6.846;2023-07-08T05:51:27;3.22;;;2.83;;
37907;SDS011;23740;51.550;6.846;2023-07-08T05:53:55;4.18;;;2.35;;
37907;SDS011;23740;51.550;6.846;2023-07-08T05:56:22;3.35;;;2.33;;
37907;SDS011;23740;51.550;6.846;2023-07-08T05:58:51;3.92;;;2.95;;
37907;SDS011;23740;51.550;6.846;2023-07-08T06:01:19;3.63;;;2.45;;
37907;SDS011;23740;51.550;6.846;2023-07-08T06:03:48;3.67;;;2.63;;
37907;SDS011;23740;51.550;6.846;2023-07-08T06:06:16;3.00;;;2.60;;
37907;SDS011;23740;51.550;6.846;2023-07-08T06:08:44;2.97;;;2.38;;
37907;SDS011;23740;51.550;6.846;2023-07-08T06:11:12;2.65;;;2.40;;
37907;SDS011;23740;51.550;6.846;2023-07-08T06:13:40;3.20;;;2.90;;
37907;SDS011;23740;51.550;6.846;2023-07-08T06:16:08;2.92;;;2.42;;
37907;SDS011;23740;51.550;6.846;2023-07-08T06:18:36;2.65;;;2.28;;
37907;SDS011;23740;51.550;6.846;2023-07-08T06:21:05;2.75;;;2.40;;
37907;SDS011;23740;51.550;6.846;2023-07-08T06:23:33;3.30;;;3.00;;
37907;SDS011;23740;51.550;6.846;2023-07-08T06:26:01;2.83;;;2.63;;
37907;SDS011;23740;51.550;6.846;2023-07-08T06:28:29;3.03;;;2.50;;
37907;SDS011;23740;51.550;6.846;2023-07-08T06:30:57;3.10;;;2.35;;
37907;SDS011;23740;51.550;6.846;2023-07-08T06:33:25;4.50;;;2.90;;
37907;SDS011;23740;51.550;6.846;2023-07-08T06:35:53;3.35;;;2.83;;
37907;SDS011;23740;51.550;6.846;2023-07-08T06:38:22;2.90;;;2.70;;
37907;SDS011;23740;51.550;6.846;2023-07-08T06:40:50;3.90;;;2.78;;
37907;SDS011;23740;51.550;6.846;2023-07-08T06:43:18;4.60;;;2.92;;
37907;SDS011;23740;51.550;6.846;2023-07-08T06:45:46;3.65;;;2.72;;
37907;SDS011;23740;51.550;6.846;2023-07-08T06:48:14;3.10;;;2.80;;
37907;SDS011;23740;51.550;6.846;2023-07-08T06:50:45;4.13;;;2.75;;
37907;SDS011;23740;51.550;6.846;2023-07-08T06:53:13;3.40;;;2.75;;
37907;SDS011;23740;51.550;6.846;2023-07-08T06:55:44;4.90;;;2.97;;
37907;SDS011;23740;51.550;6.846;2023-07-08T06:58:12;3.17;;;2.85;;
37907;SDS011;23740;51.550;6.846;2023-07-08T07:00:41;3.67;;;2.80;;
37907;SDS011;23740;51.550;6.846;2023-07-08T07:03:10;4.10;;;3.22;;
37907;SDS011;23740;51.550;6.846;2023-07-08T07:05:38;4.47;;;3.95;;
37907;SDS011;23740;51.550;6.846;2023-07-08T07:08:06;4.20;;;3.00;;
37907;SDS011;23740;51.550;6.846;2023-07-08T07:10:34;3.85;;;2.85;;
37907;SDS011;23740;51.550;6.846;2023-07-08T07:13:04;4.03;;;3.00;;
37907;SDS011;23740;51.550;6.846;2023-07-08T07:15:32;3.70;;;2.83;;
37907;SDS011;23740;51.550;6.846;2023-07-08T07:18:00;3.53;;;2.92;;
37907;SDS011;23740;51.550;6.846;2023-07-08T07:20:28;3.72;;;2.95;;
37907;SDS011;23740;51.550;6.846;2023-07-08T07:22:56;3.10;;;2.63;;
37907;SDS011;23740;51.550;6.846;2023-07-08T07:25:24;4.38;;;3.42;;
37907;SDS011;23740;51.550;6.846;2023-07-08T07:27:55;4.30;;;3.25;;
37907;SDS011;23740;51.550;6.846;2023-07-08T07:30:26;5.75;;;3.40;;
37907;SDS011;23740;51.550;6.846;2023-07-08T07:32:54;3.22;;;2.92;;
37907;SDS011;23740;51.550;6.846;2023-07-08T07:35:22;3.63;;;3.28;;
37907;SDS011;23740;51.550;6.846;2023-07-08T07:37:50;4.40;;;3.15;;
37907;SDS011;23740;51.550;6.846;2023-07-08T07:40:17;3.97;;;3.63;;
37907;SDS011;23740;51.550;6.846;2023-07-08T07:42:46;3.85;;;3.33;;
37907;SDS011;23740;51.550;6.846;2023-07-08T07:45:14;3.85;;;3.55;;
37907;SDS011;23740;51.550;6.846;2023-07-08T07:47:43;4.75;;;4.18;;
37907;SDS011;23740;51.550;6.846;2023-07-08T07:50:11;4.40;;;3.95;;
37907;SDS011;23740;51.550;6.846;2023-07-08T07:52:40;5.50;;;5.07;;
37907;SDS011;23740;51.550;6.846;2023-07-08T07:55:12;6.05;;;5.65;;
37907;SDS011;23740;51.550;6.846;2023-07-08T07:57:40;5.55;;;5.05;;
37907;SDS011;23740;51.550;6.846;2023-07-08T08:00:12;5.28;;;4.88;;
37907;SDS011;23740;51.550;6.846;2023-07-08T08:02:41;5.93;;;5.53;;
37907;SDS011;23740;51.550;6.846;2023-07-08T08:05:10;5.68;;;5.18;;
37907;SDS011;23740;51.550;6.846;2023-07-08T08:07:38;6.50;;;6.00;;
37907;SDS011;23740;51.550;6.846;2023-07-08T08:10:07;7.03;;;6.45;;
37907;SDS011;23740;51.550;6.846;2023-07-08T08:12:35;5.63;;;5.22;;
37907;SDS011;23740;51.550;6.846;2023-07-08T08:15:19;7.55;;;6.85;;
37907;SDS011;23740;51.550;6.846;2023-07-08T08:17:47;6.60;;;6.00;;
37907;SDS011;23740;51.550;6.846;2023-07-08T08:20:20;5.93;;;5.53;;
37907;SDS011;23740;51.550;6.846;2023-07-08T08:25:18;6.82;;;6.22;;
37907;SDS011;23740;51.550;6.846;2023-07-08T08:27:48;5.53;;;5.13;;
37907;SDS011;23740;51.550;6.846;2023-07-08T08:30:16;5.72;;;5.32;;
37907;SDS011;23740;51.550;6.846;2023-07-08T08:32:44;7.72;;;7.18;;
37907;SDS011;23740;51.550;6.846;2023-07-08T08:35:12;5.47;;;5.07;;
37907;SDS011;23740;51.550;6.846;2023-07-08T08:37:41;6.40;;;6.00;;
37907;SDS011;23740;51.550;6.846;2023-07-08T08:40:11;5.90;;;5.38;;
37907;SDS011;23740;51.550;6.846;2023-07-08T08:42:45;5.47;;;4.97;;
37907;SDS011;23740;51.550;6.846;2023-07-08T08:45:20;5.72;;;5.22;;
37907;SDS011;23740;51.550;6.846;2023-07-08T08:47:49;6.72;;;5.47;;
37907;SDS011;23740;51.550;6.846;2023-07-08T08:50:24;5.57;;;5.07;;
37907;SDS011;23740;51.550;6.846;2023-07-08T08:52:58;5.95;;;5.45;;
37907;SDS011;23740;51.550;6.846;2023-07-08T08:55:27;5.20;;;4.70;;
37907;SDS011;23740;51.550;6.846;2023-07-08T08:57:59;5.72;;;5.22;;
37907;SDS011;23740;51.550;6.846;2023-07-08T09:00:37;4.93;;;4.53;;
37907;SDS011;23740;51.550;6.846;2023-07-08T09:03:14;16.63;;;6.93;;
37907;SDS011;23740;51.550;6.846;2023-07-08T09:05:43;5.75;;;5.25;;
37907;SDS011;23740;51.550;6.846;2023-07-08T09:08:16;5.13;;;4.63;;
37907;SDS011;23740;51.550;6.846;2023-07-08T09:10:50;7.25;;;4.85;;
37907;SDS011;23740;51.550;6.846;2023-07-08T09:13:21;5.22;;;4.72;;
37907;SDS011;23740;51.550;6.846;2023-07-08T09:15:54;5.35;;;4.85;;
37907;SDS011;23740;51.550;6.846;2023-07-08T09:18:27;6.35;;;4.60;;
37907;SDS011;23740;51.550;6.846;2023-07-08T09:21:00;5.38;;;4.88;;
37907;SDS011;23740;51.550;6.846;2023-07-08T09:23:32;4.40;;;4.00;;
37907;SDS011;23740;51.550;6.846;2023-07-08T09:26:02;5.28;;;4.78;;
37907;SDS011;23740;51.550;6.846;2023-07-08T09:28:36;4.90;;;4.15;;
37907;SDS011;23740;51.550;6.846;2023-07-08T09:31:05;5.45;;;4.95;;
37907;SDS011;23740;51.550;6.846;2023-07-08T09:33:37;6.05;;;5.55;;
37907;SDS011;23740;51.550;6.846;2023-07-08T09:36:15;5.65;;;5.15;;
37907;SDS011;23740;51.550;6.846;2023-07-08T09:38:48;5.95;;;4.72;;
37907;SDS011;23740;51.550;6.846;2023-07-08T09:41:27;5.30;;;4.65;;
37907;SDS011;23740;51.550;6.846;2023-07-08T09:44:04;5.25;;;4.43;;
37907;SDS011;23740;51.550;6.846;2023-07-08T09:46:36;4.78;;;4.18;;
37907;SDS011;23740;51.550;6.846;2023-07-08T09:49:09;4.72;;;4.18;;
37907;SDS011;23740;51.550;6.846;2023-07-08T09:51:45;4.78;;;4.38;;
37907;SDS011;23740;51.550;6.846;2023-07-08T09:54:18;3.90;;;3.58;;
37907;SDS011;23740;51.550;6.846;2023-07-08T09:56:49;4.78;;;3.95;;
37907;SDS011;23740;51.550;6.846;2023-07-08T09:59:29;4.68;;;4.20;;
37907;SDS011;23740;51.550;6.846;2023-07-08T10:01:59;5.90;;;4.47;;
37907;SDS011;23740;51.550;6.846;2023-07-08T10:04:29;5.13;;;3.90;;
37907;SDS011;23740;51.550;6.846;2023-07-08T10:06:57;4.93;;;4.25;;
37907;SDS011;23740;51.550;6.846;2023-07-08T10:09:28;7.15;;;3.95;;
37907;SDS011;23740;51.550;6.846;2023-07-08T10:12:00;6.60;;;3.95;;
37907;SDS011;23740;51.550;6.846;2023-07-08T10:14:32;4.35;;;3.70;;
37907;SDS011;23740;51.550;6.846;2023-07-08T10:17:02;5.22;;;4.22;;
37907;SDS011;23740;51.550;6.846;2023-07-08T10:19:31;4.97;;;4.38;;
37907;SDS011;23740;51.550;6.846;2023-07-08T10:22:04;5.55;;;5.05;;
37907;SDS011;23740;51.550;6.846;2023-07-08T10:24:50;4.60;;;3.88;;
37907;SDS011;23740;51.550;6.846;2023-07-08T10:27:36;3.92;;;3.63;;
37907;SDS011;23740;51.550;6.846;2023-07-08T10:30:11;4.20;;;3.80;;
37907;SDS011;23740;51.550;6.846;2023-07-08T10:32:53;5.25;;;4.28;;
37907;SDS011;23740;51.550;6.846;2023-07-08T10:35:35;4.55;;;3.50;;
37907;SDS011;23740;51.550;6.846;2023-07-08T10:38:09;4.45;;;4.05;;
37907;SDS011;23740;51.550;6.846;2023-07-08T10:40:50;4.25;;;3.70;;
37907;SDS011;23740;51.550;6.846;2023-07-08T10:43:26;5.20;;;4.32;;
37907;SDS011;23740;51.550;6.846;2023-07-08T10:46:06;5.85;;;5.25;;
37907;SDS011;23740;51.550;6.846;2023-07-08T10:48:44;5.47;;;4.78;;
37907;SDS011;23740;51.550;6.846;2023-07-08T10:51:22;7.47;;;6.15;;
37907;SDS011;23740;51.550;6.846;2023-07-08T10:54:00;5.18;;;4.68;;
37907;SDS011;23740;51.550;6.846;2023-07-08T10:57:05;3.72;;;3.28;;
37907;SDS011;23740;51.550;6.846;2023-07-08T10:59:43;5.60;;;4.32;;
37907;SDS011;23740;51.550;6.846;2023-07-08T11:02:33;4.68;;;3.83;;
37907;SDS011;23740;51.550;6.846;2023-07-08T11:05:19;4.05;;;3.30;;
37907;SDS011;23740;51.550;6.846;2023-07-08T11:07:54;4.43;;;3.65;;
37907;SDS011;23740;51.550;6.846;2023-07-08T11:10:23;3.92;;;3.45;;
37907;SDS011;23740;51.550;6.846;2023-07-08T11:12:58;4.25;;;3.67;;
37907;SDS011;23740;51.550;6.846;2023-07-08T11:15:30;4.38;;;3.63;;
37907;SDS011;23740;51.550;6.846;2023-07-08T11:18:03;4.07;;;3.28;;
37907;SDS011;23740;51.550;6.846;2023-07-08T11:20:35;4.70;;;4.00;;
37907;SDS011;23740;51.550;6.846;2023-07-08T11:23:05;5.60;;;3.65;;
37907;SDS011;23740;51.550;6.846;2023-07-08T11:25:37;4.30;;;3.55;;
37907;SDS011;23740;51.550;6.846;2023-07-08T11:28:10;4.32;;;3.17;;
37907;SDS011;23740;51.550;6.846;2023-07-08T11:30:43;4.32;;;3.17;;
37907;SDS011;23740;51.550;6.846;2023-07-08T11:33:14;3.42;;;3.13;;
37907;SDS011;23740;51.550;6.846;2023-07-08T11:35:43;4.63;;;4.22;;
37907;SDS011;23740;51.550;6.846;2023-07-08T11:38:12;3.70;;;3.40;;
37907;SDS011;23740;51.550;6.846;2023-07-08T11:40:49;3.78;;;3.47;;
37907;SDS011;23740;51.550;6.846;2023-07-08T11:43:20;4.00;;;3.60;;
37907;SDS011;23740;51.550;6.846;2023-07-08T11:45:49;3.70;;;3.28;;
37907;SDS011;23740;51.550;6.846;2023-07-08T11:48:18;3.83;;;3.42;;
37907;SDS011;23740;51.550;6.846;2023-07-08T11:50:50;4.03;;;3.13;;
37907;SDS011;23740;51.550;6.846;2023-07-08T11:53:34;4.47;;;3.35;;
37907;SDS011;23740;51.550;6.846;2023-07-08T11:56:04;5.32;;;3.70;;
37907;SDS011;23740;51.550;6.846;2023-07-08T11:58:53;6.07;;;3.92;;
37907;SDS011;23740;51.550;6.846;2023-07-08T12:01:27;3.78;;;3.35;;
37907;SDS011;23740;51.550;6.846;2023-07-08T12:03:58;4.45;;;2.95;;
37907;SDS011;23740;51.550;6.846;2023-07-08T12:06:46;5.18;;;3.15;;
37907;SDS011;23740;51.550;6.846;2023-07-08T12:09:15;3.78;;;2.80;;
37907;SDS011;23740;51.550;6.846;2023-07-08T12:11:53;4.72;;;3.35;;
37907;SDS011;23740;51.550;6.846;2023-07-08T12:14:23;3.85;;;3.10;;
37907;SDS011;23740;51.550;6.846;2023-07-08T12:16:51;4.88;;;3.13;;
37907;SDS011;23740;51.550;6.846;2023-07-08T12:19:20;7.05;;;3.40;;
37907;SDS011;23740;51.550;6.846;2023-07-08T12:21:49;4.22;;;3.38;;
37907;SDS011;23740;51.550;6.846;2023-07-08T12:24:17;4.05;;;3.00;;
37907;SDS011;23740;51.550;6.846;2023-07-08T12:26:51;3.72;;;3.40;;
37907;SDS011;23740;51.550;6.846;2023-07-08T12:29:20;4.47;;;3.20;;
37907;SDS011;23740;51.550;6.846;2023-07-08T12:31:49;3.97;;;3.10;;
37907;SDS011;23740;51.550;6.846;2023-07-08T12:34:17;4.20;;;3.17;;
37907;SDS011;23740;51.550;6.846;2023-07-08T12:36:45;4.10;;;3.53;;
37907;SDS011;23740;51.550;6.846;2023-07-08T12:39:14;3.45;;;2.97;;
37907;SDS011;23740;51.550;6.846;2023-07-08T12:41:43;3.67;;;3.38;;
37907;SDS011;23740;51.550;6.846;2023-07-08T12:44:15;3.85;;;3.00;;
37907;SDS011;23740;51.550;6.846;2023-07-08T12:46:46;3.67;;;3.20;;
37907;SDS011;23740;51.550;6.846;2023-07-08T12:49:16;3.50;;;2.95;;
37907;SDS011;23740;51.550;6.846;2023-07-08T12:51:46;3.33;;;3.03;;
37907;SDS011;23740;51.550;6.846;2023-07-08T12:54:14;3.67;;;3.00;;
37907;SDS011;23740;51.550;6.846;2023-07-08T12:56:44;3.50;;;3.20;;
37907;SDS011;23740;51.550;6.846;2023-07-08T12:59:14;3.85;;;2.75;;
37907;SDS011;23740;51.550;6.846;2023-07-08T13:01:45;3.38;;;3.08;;
37907;SDS011;23740;51.550;6.846;2023-07-08T13:04:15;3.55;;;3.00;;
37907;SDS011;23740;51.550;6.846;2023-07-08T13:06:45;3.88;;;3.08;;
37907;SDS011;23740;51.550;6.846;2023-07-08T13:09:19;3.67;;;3.33;;
37907;SDS011;23740;51.550;6.846;2023-07-08T13:11:51;4.38;;;2.78;;
37907;SDS011;23740;51.550;6.846;2023-07-08T13:14:22;3.60;;;3.08;;
37907;SDS011;23740;51.550;6.846;2023-07-08T13:16:51;3.63;;;2.95;;
37907;SDS011;23740;51.550;6.846;2023-07-08T13:19:21;3.72;;;3.33;;
37907;SDS011;23740;51.550;6.846;2023-07-08T13:21:52;3.60;;;3.08;;
37907;SDS011;23740;51.550;6.846;2023-07-08T13:24:29;4.28;;;2.70;;
37907;SDS011;23740;51.550;6.846;2023-07-08T13:26:57;3.78;;;3.10;;
37907;SDS011;23740;51.550;6.846;2023-07-08T13:29:33;5.50;;;3.53;;
37907;SDS011;23740;51.550;6.846;2023-07-08T13:32:05;3.72;;;3.15;;
37907;SDS011;23740;51.550;6.846;2023-07-08T13:34:35;3.65;;;3.33;;
37907;SDS011;23740;51.550;6.846;2023-07-08T13:37:03;4.93;;;3.67;;
37907;SDS011;23740;51.550;6.846;2023-07-08T13:39:37;3.95;;;3.60;;
37907;SDS011;23740;51.550;6.846;2023-07-08T13:42:06;4.20;;;3.85;;
37907;SDS011;23740;51.550;6.846;2023-07-08T13:44:41;4.65;;;3.33;;
37907;SDS011;23740;51.550;6.846;2023-07-08T13:47:20;4.15;;;3.13;;
37907;SDS011;23740;51.550;6.846;2023-07-08T13:49:52;4.70;;;4.05;;
37907;SDS011;23740;51.550;6.846;2023-07-08T13:52:23;3.75;;;3.45;;
37907;SDS011;23740;51.550;6.846;2023-07-08T13:54:51;3.53;;;2.92;;
37907;SDS011;23740;51.550;6.846;2023-07-08T13:57:28;3.58;;;2.95;;
37907;SDS011;23740;51.550;6.846;2023-07-08T13:59:58;4.05;;;3.00;;
37907;SDS011;23740;51.550;6.846;2023-07-08T14:02:27;3.38;;;2.75;;
37907;SDS011;23740;51.550;6.846;2023-07-08T14:04:58;4.85;;;4.45;;
37907;SDS011;23740;51.550;6.846;2023-07-08T14:07:29;3.35;;;3.00;;
37907;SDS011;23740;51.550;6.846;2023-07-08T14:09:59;3.60;;;3.30;;
37907;SDS011;23740;51.550;6.846;2023-07-08T14:12:27;3.17;;;2.88;;
37907;SDS011;23740;51.550;6.846;2023-07-08T14:14:55;3.58;;;3.15;;
37907;SDS011;23740;51.550;6.846;2023-07-08T14:17:23;3.70;;;3.33;;
37907;SDS011;23740;51.550;6.846;2023-07-08T14:19:59;4.55;;;3.70;;
37907;SDS011;23740;51.550;6.846;2023-07-08T14:22:28;3.78;;;3.42;;
37907;SDS011;23740;51.550;6.846;2023-07-08T14:24:58;4.35;;;4.00;;
37907;SDS011;23740;51.550;6.846;2023-07-08T14:27:31;3.63;;;3.33;;
37907;SDS011;23740;51.550;6.846;2023-07-08T14:29:59;3.25;;;2.83;;
37907;SDS011;23740;51.550;6.846;2023-07-08T14:32:27;4.03;;;3.38;;
37907;SDS011;23740;51.550;6.846;2023-07-08T14:34:59;3.80;;;3.03;;
37907;SDS011;23740;51.550;6.846;2023-07-08T14:37:29;4.40;;;3.53;;
37907;SDS011;23740;51.550;6.846;2023-07-08T14:39:57;3.67;;;3.17;;
37907;SDS011;23740;51.550;6.846;2023-07-08T14:42:27;3.97;;;3.63;;
37907;SDS011;23740;51.550;6.846;2023-07-08T14:44:55;5.10;;;3.40;;
37907;SDS011;23740;51.550;6.846;2023-07-08T14:47:23;3.85;;;3.45;;
37907;SDS011;23740;51.550;6.846;2023-07-08T14:49:51;4.45;;;3.85;;
37907;SDS011;23740;51.550;6.846;2023-07-08T14:52:20;3.47;;;3.08;;
37907;SDS011;23740;51.550;6.846;2023-07-08T14:54:48;3.95;;;3.17;;
37907;SDS011;23740;51.550;6.846;2023-07-08T14:57:16;4.28;;;3.45;;
37907;SDS011;23740;51.550;6.846;2023-07-08T14:59:48;4.15;;;3.08;;
37907;SDS011;23740;51.550;6.846;2023-07-08T15:02:19;3.60;;;3.30;;
37907;SDS011;23740;51.550;6.846;2023-07-08T15:04:49;5.03;;;3.45;;
37907;SDS011;23740;51.550;6.846;2023-07-08T15:07:21;3.63;;;3.33;;
37907;SDS011;23740;51.550;6.846;2023-07-08T15:09:49;4.32;;;3.90;;
37907;SDS011;23740;51.550;6.846;2023-07-08T15:12:16;3.88;;;3.45;;